Time;durP1;ratioP1;P1;durP2;ratioP2;P2;SDS_P1;SDS_P2;PMS_P1;PMS_P2;Temp;Humidity;BMP_temperature;BMP_pressure;BME280_temperature;BME280_humidity;BME280_pressure;Samples;Min_cycle;Max_cycle;Signal;HPM_P1;HPM_P2
2023/04/15 00:04:02;;;;;;;4.30;2.35;;;12.40;88.80;;;;;;10487115;28;20020;-65
2023/04/15 00:09:02;;;;;;;2.35;1.80;;;12.40;88.90;;;;;;10488221;28;20538;-65
2023/04/15 00:14:03;;;;;;;3.28;1.80;;;12.40;88.90;;;;;;10494910;28;20020;-65
2023/04/15 00:19:03;;;;;;;5.00;2.20;;;12.40;89.00;;;;;;10491372;28;20515;-65
2023/04/15 00:24:04;;;;;;;2.78;2.08;;;12.40;89.10;;;;;;10497536;28;20039;-65
2023/04/15 00:29:05;;;;;;;5.50;2.50;;;12.30;89.10;;;;;;10491976;28;20369;-63
2023/04/15 00:34:06;;;;;;;5.43;2.20;;;12.30;89.20;;;;;;10493300;28;20048;-65
2023/04/15 00:39:06;;;;;;;5.25;1.95;;;12.20;89.20;;;;;;10492422;28;20032;-64
2023/04/15 00:44:08;;;;;;;3.50;2.13;;;12.30;89.30;;;;;;10493743;28;20024;-65
2023/04/15 00:49:08;;;;;;;2.20;1.77;;;12.20;89.80;;;;;;10490723;28;20396;-65
2023/04/15 00:54:10;;;;;;;3.10;2.10;;;12.20;89.40;;;;;;10495469;28;20029;-64
2023/04/15 00:59:11;;;;;;;4.43;2.30;;;12.20;89.40;;;;;;10493332;28;20093;-64
2023/04/15 01:04:12;;;;;;;2.95;2.10;;;12.10;89.40;;;;;;10492816;28;20028;-64
2023/04/15 01:09:12;;;;;;;3.08;2.03;;;12.10;89.40;;;;;;10490428;28;20305;-65
2023/04/15 01:14:13;;;;;;;5.28;2.15;;;12.10;89.60;;;;;;10500051;28;20077;-65
2023/04/15 01:19:16;;;;;;;3.90;1.92;;;12.10;89.60;;;;;;10491674;28;20510;-65
2023/04/15 01:24:18;;;;;;;3.47;2.00;;;12.10;89.70;;;;;;10500574;28;20028;-64
2023/04/15 01:29:18;;;;;;;4.25;2.10;;;12.00;89.70;;;;;;10491671;28;20028;-64
2023/04/15 01:34:19;;;;;;;3.90;2.30;;;12.00;89.80;;;;;;10494820;28;20026;-65
2023/04/15 01:39:20;;;;;;;2.30;1.75;;;12.00;89.80;;;;;;10492685;28;20044;-65
2023/04/15 01:44:21;;;;;;;4.25;2.17;;;11.90;89.80;;;;;;10494517;28;20104;-64
2023/04/15 01:49:22;;;;;;;2.58;1.92;;;11.90;90.00;;;;;;10488768;28;20029;-65
2023/04/15 01:54:22;;;;;;;2.95;2.03;;;11.90;90.00;;;;;;10499637;28;20040;-65
2023/04/15 01:59:23;;;;;;;3.28;2.10;;;11.90;90.00;;;;;;10491839;28;20414;-64
2023/04/15 02:04:23;;;;;;;3.55;1.85;;;11.90;90.00;;;;;;10495300;28;20162;-64
2023/04/15 02:09:24;;;;;;;3.60;1.95;;;11.80;90.00;;;;;;10496972;28;20027;-65
2023/04/15 02:14:25;;;;;;;4.10;2.00;;;11.30;89.90;;;;;;10498035;28;20020;-65
2023/04/15 02:19:25;;;;;;;2.15;1.75;;;11.80;90.00;;;;;;10480398;28;20032;-64
2023/04/15 02:24:27;;;;;;;3.78;1.85;;;11.80;90.00;;;;;;10496216;28;20024;-65
2023/04/15 02:29:28;;;;;;;3.35;1.95;;;11.70;90.10;;;;;;10490066;28;20103;-66
2023/04/15 02:34:28;;;;;;;4.13;2.05;;;11.70;90.10;;;;;;10483191;28;20029;-65
2023/04/15 02:39:29;;;;;;;6.18;2.35;;;11.70;90.10;;;;;;10478631;28;20043;-65
2023/04/15 02:44:30;;;;;;;3.25;2.20;;;11.70;90.10;;;;;;10481395;28;20511;-65
2023/04/15 02:49:31;;;;;;;2.83;1.92;;;11.60;90.10;;;;;;10493388;28;20065;-65
2023/04/15 02:54:32;;;;;;;4.38;2.20;;;11.60;90.10;;;;;;10493803;28;20424;-64
2023/04/15 02:59:33;;;;;;;3.63;2.28;;;11.60;90.20;;;;;;10488611;28;20030;-65
2023/04/15 03:04:34;;;;;;;2.83;2.20;;;11.60;90.20;;;;;;10485484;28;20035;-65
2023/04/15 03:09:35;;;;;;;5.00;2.35;;;11.50;90.20;;;;;;10494401;28;20353;-64
2023/04/15 03:14:35;;;;;;;3.95;2.10;;;11.50;90.20;;;;;;10496973;28;20502;-65
2023/04/15 03:19:36;;;;;;;3.90;2.30;;;11.50;90.20;;;;;;10488841;28;20028;-64
2023/04/15 03:24:36;;;;;;;7.07;2.70;;;11.50;90.20;;;;;;10486404;28;20029;-65
2023/04/15 03:29:37;;;;;;;3.10;2.25;;;11.50;90.20;;;;;;10486825;28;20025;-65
2023/04/15 03:34:38;;;;;;;4.78;2.25;;;11.40;90.20;;;;;;10496224;28;20387;-65
2023/04/15 03:39:38;;;;;;;4.28;2.40;;;11.40;90.30;;;;;;10485646;28;20028;-66
2023/04/15 03:44:39;;;;;;;4.03;2.10;;;11.40;90.30;;;;;;10494905;28;20457;-65
2023/04/15 03:49:40;;;;;;;6.47;2.05;;;11.30;90.30;;;;;;10497715;28;20380;-65
2023/04/15 03:54:41;;;;;;;4.15;2.22;;;11.30;90.30;;;;;;10493558;28;20028;-65
2023/04/15 03:59:42;;;;;;;4.35;2.65;;;11.30;90.30;;;;;;10504659;28;20508;-64
2023/04/15 04:04:42;;;;;;;2.95;2.10;;;11.30;90.40;;;;;;10497543;28;20045;-65
2023/04/15 04:09:43;;;;;;;3.75;2.00;;;11.30;90.40;;;;;;10498522;28;20016;-65
2023/04/15 04:14:43;;;;;;;3.20;2.08;;;11.20;90.40;;;;;;10504703;28;20031;-65
2023/04/15 04:19:46;;;;;;;3.63;2.58;;;11.20;90.40;;;;;;10500222;28;20025;-65
2023/04/15 04:24:47;;;;;;;3.35;1.98;;;11.20;90.50;;;;;;10502755;28;20032;-65
2023/04/15 04:29:48;;;;;;;5.70;2.35;;;11.20;90.50;;;;;;10502498;28;20301;-64
2023/04/15 04:34:49;;;;;;;3.97;2.30;;;11.10;90.50;;;;;;10501127;28;20289;-66
2023/04/15 04:39:50;;;;;;;4.20;2.45;;;11.10;90.50;;;;;;10502578;28;20044;-64
2023/04/15 04:44:50;;;;;;;4.43;2.22;;;11.10;90.80;;;;;;10495441;28;20220;-65
2023/04/15 04:49:51;;;;;;;4.13;2.35;;;11.10;90.50;;;;;;10494767;28;20065;-65
2023/04/15 04:54:51;;;;;;;3.63;2.25;;;11.10;90.60;;;;;;10493854;28;20039;-65
2023/04/15 04:59:52;;;;;;;4.65;2.70;;;11.00;90.50;;;;;;10502800;28;20350;-64
2023/04/15 05:04:53;;;;;;;4.22;2.30;;;11.00;90.60;;;;;;10494724;28;20028;-65
2023/04/15 05:09:53;;;;;;;5.15;2.67;;;11.00;90.60;;;;;;10486432;28;20024;-65
2023/04/15 05:14:54;;;;;;;5.40;2.88;;;11.00;90.60;;;;;;10494497;28;21413;-64
2023/04/15 05:19:55;;;;;;;4.43;2.70;;;10.90;90.60;;;;;;10480894;28;20814;-65
2023/04/15 05:24:55;;;;;;;3.63;2.35;;;10.90;90.60;;;;;;10476329;28;20634;-65
2023/04/15 05:29:56;;;;;;;4.60;2.70;;;10.90;90.60;;;;;;10485688;28;20028;-65
2023/04/15 05:34:56;;;;;;;3.95;2.25;;;10.90;90.60;;;;;;10491016;28;20544;-64
2023/04/15 05:39:57;;;;;;;5.25;2.30;;;10.90;90.60;;;;;;10477561;28;20036;-65
2023/04/15 05:44:58;;;;;;;3.55;2.38;;;10.90;90.60;;;;;;10483181;28;20029;-65
2023/04/15 05:49:58;;;;;;;4.00;2.40;;;10.90;90.60;;;;;;10480424;28;20063;-66
2023/04/15 05:54:59;;;;;;;4.78;2.53;;;10.90;90.60;;;;;;10478775;28;20032;-65
2023/04/15 05:59:59;;;;;;;4.60;2.85;;;10.90;90.60;;;;;;10484614;28;20035;-65
2023/04/15 06:05:00;;;;;;;5.07;2.78;;;10.90;90.60;;;;;;10465321;28;20036;-65
2023/04/15 06:10:01;;;;;;;5.07;2.47;;;10.90;90.60;;;;;;10473729;28;20025;-64
2023/04/15 06:15:02;;;;;;;5.15;2.55;;;10.90;90.80;;;;;;10484802;28;20063;-65
2023/04/15 06:20:03;;;;;;;4.10;2.55;;;10.90;90.80;;;;;;10480105;28;20028;-65
2023/04/15 06:25:06;;;;;;;5.75;2.22;;;10.90;90.80;;;;;;10485313;28;20111;-65
2023/04/15 06:30:07;;;;;;;4.95;2.65;;;10.90;90.80;;;;;;10480855;28;20021;-67
2023/04/15 06:35:08;;;;;;;4.03;2.40;;;10.80;90.80;;;;;;10483506;28;20044;-64
2023/04/15 06:40:09;;;;;;;3.63;2.50;;;10.90;90.90;;;;;;10489254;28;20036;-65
2023/04/15 06:45:10;;;;;;;3.97;2.42;;;10.80;90.80;;;;;;10482780;28;20025;-65
2023/04/15 06:50:11;;;;;;;3.40;2.22;;;10.80;90.80;;;;;;10480555;28;20167;-64
2023/04/15 06:55:12;;;;;;;5.13;3.10;;;10.90;90.90;;;;;;10487742;28;20056;-65
2023/04/15 07:00:13;;;;;;;3.80;2.25;;;10.90;90.90;;;;;;10491936;28;20104;-66
2023/04/15 07:05:13;;;;;;;5.05;2.55;;;10.90;91.00;;;;;;10483544;28;20036;-64
2023/04/15 07:10:14;;;;;;;3.42;2.20;;;10.90;90.90;;;;;;10486614;28;20024;-64
2023/04/15 07:15:15;;;;;;;3.22;2.25;;;10.90;90.90;;;;;;10494580;28;20092;-64
2023/04/15 07:20:16;;;;;;;3.80;2.20;;;11.00;91.00;;;;;;10496515;28;20107;-65
2023/04/15 07:25:17;;;;;;;6.25;2.30;;;11.00;90.90;;;;;;10492877;28;20025;-64
2023/04/15 07:30:18;;;;;;;3.25;1.90;;;11.00;91.00;;;;;;10501135;28;20017;-65
2023/04/15 07:35:20;;;;;;;3.30;1.98;;;11.00;91.00;;;;;;10487050;28;20203;-65
2023/04/15 07:40:21;;;;;;;4.05;2.08;;;11.10;91.00;;;;;;10486762;28;20371;-65
2023/04/15 07:45:21;;;;;;;2.50;1.83;;;11.10;91.10;;;;;;10495344;28;20032;-65
2023/04/15 07:50:23;;;;;;;5.65;2.00;;;11.10;91.10;;;;;;10492844;28;20392;-65
2023/04/15 07:55:23;;;;;;;4.07;2.22;;;11.10;91.20;;;;;;10495009;28;20021;-66
2023/04/15 08:00:25;;;;;;;4.55;1.98;;;11.20;91.30;;;;;;10498995;28;20021;-65
2023/04/15 08:05:26;;;;;;;3.35;1.85;;;11.20;91.50;;;;;;10493361;28;20436;-64
2023/04/15 08:10:28;;;;;;;3.90;1.85;;;11.80;91.70;;;;;;10494597;28;20023;-66
2023/04/15 08:15:29;;;;;;;9.38;4.03;;;11.20;91.60;;;;;;10486205;28;20024;-65
2023/04/15 08:20:29;;;;;;;6.68;4.07;;;10.80;93.70;;;;;;10493309;28;20023;-64
2023/04/15 08:25:30;;;;;;;9.38;3.85;;;10.20;95.20;;;;;;10491734;28;20024;-65
2023/04/15 08:30:31;;;;;;;7.78;3.47;;;10.10;95.60;;;;;;10494205;28;20023;-64
2023/04/15 08:35:31;;;;;;;7.03;3.75;;;10.00;96.10;;;;;;10489095;28;20395;-65
2023/04/15 08:40:40;;;;;;;7.45;3.80;;;10.10;96.10;;;;;;10484556;28;20024;-64
2023/04/15 08:45:42;;;;;;;8.52;4.45;;;10.20;96.50;;;;;;10492362;28;20028;-70
2023/04/15 08:50:45;;;;;;;9.13;3.30;;;10.40;96.40;;;;;;10495540;28;20024;-65
2023/04/15 08:55:51;;;;;;;6.85;3.58;;;10.40;96.30;;;;;;10494618;28;20096;-65
2023/04/15 09:00:52;;;;;;;5.45;2.60;;;10.30;96.80;;;;;;10488295;28;20037;-64
2023/04/15 09:05:53;;;;;;;6.85;3.40;;;10.20;96.40;;;;;;10488158;28;20021;-66
2023/04/15 09:10:54;;;;;;;4.43;2.72;;;10.20;96.20;;;;;;10490240;28;20418;-66
2023/04/15 09:15:57;;;;;;;7.63;2.80;;;10.30;96.40;;;;;;10495471;28;20052;-65
2023/04/15 09:21:12;;;;;;;4.90;2.50;;;10.30;96.20;;;;;;10498880;28;20035;-65
2023/04/15 09:26:15;;;;;;;5.30;2.72;;;10.40;96.60;;;;;;10488897;28;20504;-66
2023/04/15 09:31:28;;;;;;;8.88;3.72;;;10.40;96.50;;;;;;10497664;28;20028;-64
2023/04/15 09:36:29;;;;;;;6.80;3.03;;;10.50;96.60;;;;;;10495078;28;20020;-66
2023/04/15 09:41:29;;;;;;;4.90;3.40;;;10.50;96.80;;;;;;10487460;28;20067;-64
2023/04/15 09:46:45;;;;;;;8.68;3.05;;;10.30;96.70;;;;;;10488219;28;20052;-65
2023/04/15 09:51:46;;;;;;;7.13;2.90;;;10.30;96.70;;;;;;10498214;28;20124;-64
2023/04/15 09:56:47;;;;;;;4.15;2.22;;;10.20;96.90;;;;;;10499885;28;20026;-65
2023/04/15 10:01:48;;;;;;;5.88;2.63;;;10.10;97.00;;;;;;10489207;28;20029;-64
2023/04/15 10:06:49;;;;;;;2.85;1.50;;;10.10;97.10;;;;;;10489866;28;20119;-65
2023/04/15 10:11:51;;;;;;;3.08;1.45;;;10.10;96.90;;;;;;10499947;28;20035;-64
2023/04/15 10:16:55;;;;;;;6.22;2.70;;;10.00;96.90;;;;;;10503476;28;20033;-64
2023/04/15 10:21:56;;;;;;;4.32;2.13;;;10.00;97.00;;;;;;10488805;28;20096;-63
2023/04/15 10:26:59;;;;;;;2.80;1.88;;;10.00;96.90;;;;;;10479570;28;20423;-65
2023/04/15 10:32:00;;;;;;;4.78;1.85;;;10.00;97.10;;;;;;10483689;28;20107;-65
2023/04/15 10:37:05;;;;;;;6.25;2.13;;;10.00;97.20;;;;;;10486151;28;20060;-66
2023/04/15 10:42:06;;;;;;;4.00;1.90;;;10.20;97.10;;;;;;10495563;28;20031;-66
2023/04/15 10:47:12;;;;;;;2.60;1.70;;;10.40;96.90;;;;;;10490747;28;20056;-66
2023/04/15 10:52:15;;;;;;;2.47;1.20;;;10.60;96.80;;;;;;10485353;28;20024;-66
2023/04/15 10:57:22;;;;;;;3.78;1.70;;;10.90;96.50;;;;;;10482461;28;20025;-65
2023/04/15 11:02:43;;;;;;;3.67;1.67;;;10.90;96.40;;;;;;10495102;28;20575;-66
2023/04/15 11:07:45;;;;;;;2.53;1.10;;;10.80;96.60;;;;;;10489272;28;20032;-68
2023/04/15 11:12:55;;;;;;;3.03;1.30;;;10.80;96.10;;;;;;10488462;28;20036;-66
2023/04/15 11:17:57;;;;;;;1.98;1.00;;;10.80;96.10;;;;;;10498859;28;20024;-67
2023/04/15 11:22:58;;;;;;;3.25;0.90;;;10.80;96.10;;;;;;10485296;28;20369;-66
2023/04/15 11:28:01;;;;;;;2.92;0.73;;;10.70;96.10;;;;;;10495821;28;20024;-66
2023/04/15 11:33:12;;;;;;;2.17;0.80;;;10.70;96.40;;;;;;10501169;28;20035;-66
2023/04/15 11:38:14;;;;;;;2.25;1.30;;;10.80;96.10;;;;;;10500005;28;20116;-65
2023/04/15 11:43:20;;;;;;;3.03;1.17;;;10.70;96.10;;;;;;10497469;28;20044;-65
2023/04/15 11:48:23;;;;;;;3.55;1.20;;;10.60;96.30;;;;;;10496099;28;20017;-66
2023/04/15 11:53:40;;;;;;;4.40;1.55;;;11.20;96.50;;;;;;10486792;28;20020;-66
2023/04/15 11:58:42;;;;;;;2.05;1.08;;;10.40;96.60;;;;;;10492288;28;20033;-66
2023/04/15 12:03:47;;;;;;;4.22;1.60;;;10.30;96.60;;;;;;10496000;28;20035;-65
2023/04/15 12:08:54;;;;;;;2.65;0.95;;;10.30;96.80;;;;;;10491498;28;20016;-65
2023/04/15 12:13:56;;;;;;;2.05;1.27;;;10.20;97.50;;;;;;10491493;28;20024;-65
2023/04/15 12:18:59;;;;;;;4.55;1.20;;;10.20;96.90;;;;;;10498031;28;20086;-65
2023/04/15 12:24:02;;;;;;;2.35;1.45;;;10.30;97.00;;;;;;10492322;28;20408;-65
2023/04/15 12:29:07;;;;;;;3.17;1.40;;;10.20;97.20;;;;;;10494591;28;20047;-65
2023/04/15 12:34:08;;;;;;;3.00;1.33;;;10.20;97.30;;;;;;10489351;28;20100;-65
2023/04/15 12:39:08;;;;;;;3.00;1.30;;;10.20;97.40;;;;;;10502119;28;20502;-66
2023/04/15 12:44:09;;;;;;;4.20;1.45;;;10.20;97.40;;;;;;10489841;28;20025;-63
2023/04/15 12:49:09;;;;;;;1.98;1.35;;;10.10;97.30;;;;;;10496958;28;20404;-65
2023/04/15 12:54:10;;;;;;;2.75;1.80;;;10.10;97.90;;;;;;10496535;28;20032;-65
2023/04/15 12:59:11;;;;;;;4.55;1.60;;;10.10;97.60;;;;;;10489386;28;20109;-64
2023/04/15 13:04:12;;;;;;;5.32;1.92;;;10.10;98.00;;;;;;10489136;28;20099;-65
2023/04/15 13:09:13;;;;;;;5.22;1.45;;;10.10;98.40;;;;;;10497271;28;20021;-63
2023/04/15 13:14:14;;;;;;;5.13;1.60;;;9.90;98.40;;;;;;10491627;28;20444;-65
2023/04/15 13:19:15;;;;;;;4.32;1.50;;;9.90;98.50;;;;;;10487177;28;20024;-66
2023/04/15 13:24:15;;;;;;;4.63;1.08;;;10.10;98.20;;;;;;10502396;28;20043;-64
2023/04/15 13:29:16;;;;;;;3.35;1.42;;;10.20;98.00;;;;;;10493720;28;20099;-64
2023/04/15 13:34:17;;;;;;;7.53;1.70;;;10.20;98.10;;;;;;10496179;28;20027;-64
2023/04/15 13:39:17;;;;;;;4.78;1.90;;;10.20;98.30;;;;;;10487840;28;20029;-64
2023/04/15 13:44:18;;;;;;;3.92;1.27;;;10.20;98.20;;;;;;10486394;28;20491;-64
2023/04/15 13:49:18;;;;;;;4.15;1.15;;;10.20;98.10;;;;;;10484774;28;20496;-64
2023/04/15 13:54:19;;;;;;;4.43;1.50;;;10.10;98.30;;;;;;10482197;28;20032;-65
2023/04/15 13:59:20;;;;;;;5.32;1.90;;;10.00;98.50;;;;;;10484076;28;20118;-64
2023/04/15 14:04:20;;;;;;;2.35;1.10;;;10.10;98.50;;;;;;10489432;28;20020;-64
2023/04/15 14:09:22;;;;;;;3.65;1.15;;;10.10;98.50;;;;;;10489348;28;20027;-64
2023/04/15 14:14:23;;;;;;;5.35;1.23;;;10.00;98.70;;;;;;10480006;28;20060;-64
2023/04/15 14:19:24;;;;;;;4.53;1.50;;;10.00;98.80;;;;;;10482530;28;20575;-68
2023/04/15 14:24:24;;;;;;;6.28;1.58;;;9.90;98.90;;;;;;10480075;28;20419;-65
2023/04/15 14:29:26;;;;;;;5.88;1.20;;;10.00;98.80;;;;;;10486353;28;20048;-65
2023/04/15 14:34:27;;;;;;;3.13;0.80;;;10.20;98.40;;;;;;10488779;28;20051;-65
2023/04/15 14:39:27;;;;;;;3.92;1.00;;;10.40;98.10;;;;;;10477748;28;20037;-65
2023/04/15 14:44:28;;;;;;;2.75;1.27;;;10.60;97.90;;;;;;10484524;28;20028;-65
2023/04/15 14:49:29;;;;;;;2.97;1.20;;;10.80;97.70;;;;;;10486660;28;20024;-65
2023/04/15 14:54:30;;;;;;;1.73;1.08;;;10.90;97.60;;;;;;10488899;28;20059;-66
2023/04/15 14:59:30;;;;;;;2.58;0.90;;;11.00;97.50;;;;;;10494369;28;20111;-64
2023/04/15 15:04:32;;;;;;;1.90;1.05;;;11.00;97.40;;;;;;10478809;28;20016;-66
2023/04/15 15:09:32;;;;;;;7.38;2.15;;;10.70;98.40;;;;;;10483876;28;20119;-65
2023/04/15 15:14:33;;;;;;;9.65;1.75;;;10.20;98.90;;;;;;10481630;28;20022;-64
2023/04/15 15:19:34;;;;;;;6.55;1.63;;;10.40;98.70;;;;;;10483239;28;20641;-65
2023/04/15 15:24:34;;;;;;;6.80;1.50;;;10.60;98.50;;;;;;10485077;28;20415;-64
2023/04/15 15:29:36;;;;;;;4.57;1.30;;;10.70;98.20;;;;;;10484457;28;20124;-64
2023/04/15 15:34:37;;;;;;;4.93;1.30;;;10.80;98.00;;;;;;10490265;28;20021;-63
2023/04/15 15:39:38;;;;;;;5.50;1.55;;;11.00;97.90;;;;;;10498175;28;20024;-65
2023/04/15 15:44:38;;;;;;;6.28;1.50;;;11.00;97.80;;;;;;10491507;28;20052;-64
2023/04/15 15:49:39;;;;;;;5.43;2.05;;;11.10;97.70;;;;;;10497263;28;20132;-65
2023/04/15 15:54:40;;;;;;;3.35;1.23;;;11.10;97.70;;;;;;10495498;28;20410;-64
2023/04/15 15:59:42;;;;;;;3.80;1.77;;;11.20;97.70;;;;;;10490168;28;20027;-64
2023/04/15 16:04:43;;;;;;;2.70;1.15;;;11.20;97.60;;;;;;10492918;28;20040;-65
2023/04/15 16:09:43;;;;;;;4.63;1.30;;;11.20;97.60;;;;;;10490893;28;20095;-63
2023/04/15 16:14:46;;;;;;;3.70;1.13;;;11.30;97.60;;;;;;10496696;28;20017;-65
2023/04/15 16:19:46;;;;;;;3.90;1.10;;;11.20;97.60;;;;;;10495919;28;20056;-65
2023/04/15 16:24:47;;;;;;;2.35;1.20;;;11.20;97.50;;;;;;10487848;28;20130;-64
2023/04/15 16:29:47;;;;;;;3.30;1.05;;;11.20;97.50;;;;;;10494600;28;20592;-64
2023/04/15 16:34:48;;;;;;;2.63;1.13;;;11.20;97.50;;;;;;10496143;28;20029;-65
2023/04/15 16:39:49;;;;;;;3.65;1.00;;;11.30;97.50;;;;;;10496602;28;20492;-63
2023/04/15 16:44:49;;;;;;;2.70;1.20;;;11.20;97.40;;;;;;10494513;28;20048;-65
2023/04/15 16:49:50;;;;;;;4.45;1.13;;;11.30;97.40;;;;;;10495791;28;20017;-67
2023/04/15 16:54:51;;;;;;;2.67;1.15;;;11.30;97.40;;;;;;10489594;28;20033;-67
2023/04/15 16:59:51;;;;;;;4.47;0.85;;;11.30;97.40;;;;;;10491700;28;20029;-66
2023/04/15 17:04:52;;;;;;;5.35;1.17;;;11.40;97.40;;;;;;10488635;28;20025;-65
2023/04/15 17:09:52;;;;;;;4.90;1.17;;;11.40;97.40;;;;;;10484424;28;20492;-64
2023/04/15 17:14:53;;;;;;;3.60;1.10;;;11.40;97.40;;;;;;10486885;28;20492;-65
2023/04/15 17:19:54;;;;;;;2.67;1.13;;;11.40;97.40;;;;;;10497535;28;20404;-64
2023/04/15 17:24:55;;;;;;;2.80;1.23;;;11.30;97.40;;;;;;10495451;28;20036;-64
2023/04/15 17:29:56;;;;;;;3.60;1.02;;;11.30;97.40;;;;;;10484945;28;20021;-64
2023/04/15 17:34:57;;;;;;;2.35;1.08;;;11.30;97.40;;;;;;10498455;28;20539;-65
2023/04/15 17:39:58;;;;;;;4.38;1.10;;;11.30;97.40;;;;;;10498829;28;20039;-63
2023/04/15 17:44:58;;;;;;;4.10;1.17;;;11.30;97.40;;;;;;10497009;28;20029;-64
2023/04/15 17:49:59;;;;;;;3.50;1.00;;;11.30;97.40;;;;;;10490558;28;20024;-64
2023/04/15 17:54:59;;;;;;;2.88;1.13;;;11.30;97.40;;;;;;10492283;28;20035;-64
2023/04/15 18:00:00;;;;;;;2.33;1.00;;;11.30;97.40;;;;;;10475280;28;20030;-64
2023/04/15 18:05:01;;;;;;;1.17;1.08;;;11.10;97.30;;;;;;10479374;28;20025;-63
2023/04/15 18:10:06;;;;;;;3.53;1.30;;;11.30;97.30;;;;;;10486654;28;20032;-65
2023/04/15 18:15:08;;;;;;;1.40;0.90;;;11.20;97.30;;;;;;10480573;28;20081;-64
2023/04/15 18:20:09;;;;;;;2.97;1.23;;;11.20;97.30;;;;;;10482813;28;20024;-64
2023/04/15 18:25:10;;;;;;;2.92;1.00;;;11.20;97.30;;;;;;10479223;28;20025;-64
2023/04/15 18:30:11;;;;;;;1.98;0.90;;;11.20;97.30;;;;;;10481777;28;20405;-64
2023/04/15 18:35:11;;;;;;;3.97;1.30;;;11.30;97.30;;;;;;10477591;28;20028;-63
2023/04/15 18:40:15;;;;;;;2.22;0.85;;;11.20;97.20;;;;;;10480177;28;20046;-65
2023/04/15 18:45:15;;;;;;;4.15;1.10;;;11.20;97.20;;;;;;10485197;28;20536;-64
2023/04/15 18:50:16;;;;;;;3.05;1.05;;;11.20;97.20;;;;;;10458160;28;20174;-64
2023/04/15 18:55:16;;;;;;;4.97;1.50;;;11.20;97.20;;;;;;10488253;28;20031;-64
2023/04/15 19:00:17;;;;;;;1.42;0.90;;;11.20;97.20;;;;;;10483062;28;20020;-63
2023/04/15 19:05:18;;;;;;;3.70;1.02;;;11.20;97.10;;;;;;10498116;28;20036;-64
2023/04/15 19:10:18;;;;;;;6.70;1.10;;;11.20;97.10;;;;;;10491550;28;20017;-64
2023/04/15 19:15:19;;;;;;;1.40;0.95;;;11.20;97.10;;;;;;10497509;28;20024;-63
2023/04/15 19:20:20;;;;;;;2.70;0.82;;;11.20;97.20;;;;;;10481064;28;20476;-64
2023/04/15 19:25:20;;;;;;;3.00;1.10;;;11.20;97.10;;;;;;10475681;28;20036;-64
2023/04/15 19:30:21;;;;;;;2.03;0.90;;;11.20;97.10;;;;;;10482643;28;20323;-64
2023/04/15 19:35:22;;;;;;;2.15;1.10;;;11.20;97.10;;;;;;10479598;28;20523;-64
2023/04/15 19:40:22;;;;;;;2.63;1.02;;;11.20;97.10;;;;;;10488763;28;20100;-64
2023/04/15 19:45:23;;;;;;;1.75;1.10;;;11.10;97.10;;;;;;10485351;28;20017;-64
2023/04/15 19:50:25;;;;;;;4.03;1.10;;;11.20;97.20;;;;;;10483503;28;20013;-63
2023/04/15 19:55:25;;;;;;;4.93;1.10;;;11.10;97.10;;;;;;10475664;28;20025;-63
2023/04/15 20:00:26;;;;;;;3.85;1.40;;;11.20;97.10;;;;;;10480237;28;20032;-64
2023/04/15 20:05:26;;;;;;;2.22;0.98;;;11.10;97.10;;;;;;10484022;28;20511;-64
2023/04/15 20:10:28;;;;;;;3.00;1.05;;;11.10;97.10;;;;;;10481255;28;20099;-64
2023/04/15 20:15:29;;;;;;;3.10;1.17;;;11.10;97.10;;;;;;10477489;28;20017;-62
2023/04/15 20:20:30;;;;;;;3.50;1.38;;;11.10;97.10;;;;;;10480684;28;20487;-63
2023/04/15 20:25:30;;;;;;;4.03;1.52;;;11.10;97.10;;;;;;10474850;28;20036;-64
2023/04/15 20:30:31;;;;;;;2.85;1.15;;;11.10;97.10;;;;;;10482063;28;20016;-63
2023/04/15 20:35:32;;;;;;;5.32;1.70;;;11.10;97.10;;;;;;10480641;28;20394;-63
2023/04/15 20:40:33;;;;;;;4.68;1.30;;;11.10;97.10;;;;;;10487900;28;20027;-65
2023/04/15 20:45:33;;;;;;;5.88;1.80;;;11.10;97.00;;;;;;10479278;28;20701;-65
2023/04/15 20:50:34;;;;;;;1.92;1.00;;;11.10;97.00;;;;;;10484698;28;20392;-65
2023/04/15 20:55:35;;;;;;;3.60;1.42;;;11.10;97.00;;;;;;10477950;28;20024;-65
2023/04/15 21:00:35;;;;;;;4.20;1.42;;;11.10;97.00;;;;;;10478589;28;20023;-65
2023/04/15 21:05:36;;;;;;;2.67;1.23;;;11.10;97.00;;;;;;10477019;28;20031;-65
2023/04/15 21:10:36;;;;;;;5.35;1.33;;;11.10;97.30;;;;;;10479443;28;20035;-66
2023/04/15 21:15:38;;;;;;;3.40;1.00;;;11.10;97.00;;;;;;10475301;28;20168;-65
2023/04/15 21:20:38;;;;;;;2.50;1.50;;;11.10;97.00;;;;;;10478775;28;20098;-65
2023/04/15 21:25:39;;;;;;;3.63;1.48;;;11.10;97.00;;;;;;10477377;28;20085;-65
2023/04/15 21:30:39;;;;;;;5.28;1.20;;;11.00;97.00;;;;;;10485364;28;20028;-65
2023/04/15 21:35:40;;;;;;;3.65;1.52;;;11.10;97.00;;;;;;10483473;28;20127;-65
2023/04/15 21:40:40;;;;;;;5.85;1.50;;;11.10;96.90;;;;;;10480232;28;20028;-66
2023/04/15 21:45:43;;;;;;;5.47;1.50;;;11.10;96.90;;;;;;10478099;28;20426;-65
2023/04/15 21:50:47;;;;;;;4.90;1.50;;;11.10;96.90;;;;;;10483096;28;20048;-66
2023/04/15 21:55:48;;;;;;;6.13;1.73;;;11.00;96.90;;;;;;10482661;28;20171;-65
2023/04/15 22:00:48;;;;;;;4.82;1.50;;;11.00;96.80;;;;;;10477755;28;20096;-65
2023/04/15 22:05:49;;;;;;;6.05;1.80;;;11.10;96.90;;;;;;10481625;28;20028;-65
2023/04/15 22:10:49;;;;;;;6.85;1.92;;;11.10;96.90;;;;;;10482801;28;20021;-65
2023/04/15 22:15:50;;;;;;;5.53;2.17;;;11.00;96.80;;;;;;10482668;28;20028;-65
2023/04/15 22:20:51;;;;;;;4.13;1.63;;;11.10;96.80;;;;;;10480113;28;20028;-65
2023/04/15 22:25:51;;;;;;;3.47;1.85;;;11.00;96.80;;;;;;10486267;28;20032;-65
2023/04/15 22:30:53;;;;;;;5.00;2.15;;;11.10;96.80;;;;;;10482110;28;20028;-65
2023/04/15 22:35:53;;;;;;;7.55;2.17;;;11.10;96.80;;;;;;10482440;28;20069;-65
2023/04/15 22:40:54;;;;;;;5.25;2.22;;;11.10;96.80;;;;;;10483791;28;20103;-65
2023/04/15 22:45:55;;;;;;;5.72;2.10;;;11.00;96.80;;;;;;10487727;28;20029;-65
2023/04/15 22:50:56;;;;;;;7.78;2.22;;;11.00;96.80;;;;;;10477023;28;20029;-65
2023/04/15 22:55:56;;;;;;;8.15;2.60;;;11.00;96.80;;;;;;10484005;28;20027;-65
2023/04/15 23:00:57;;;;;;;6.22;1.75;;;11.10;97.00;;;;;;10485811;28;20387;-65
2023/04/15 23:05:58;;;;;;;6.50;2.90;;;11.00;96.80;;;;;;10491417;28;20028;-65
2023/04/15 23:10:59;;;;;;;7.45;2.40;;;11.00;96.80;;;;;;10490404;28;20498;-65
2023/04/15 23:16:01;;;;;;;6.72;2.28;;;11.10;96.80;;;;;;10490553;28;20037;-65
2023/04/15 23:21:02;;;;;;;7.95;3.22;;;11.00;96.80;;;;;;10482994;28;20371;-66
2023/04/15 23:26:03;;;;;;;11.32;3.25;;;11.00;96.80;;;;;;10485324;28;20218;-65
2023/04/15 23:31:03;;;;;;;5.93;2.40;;;11.10;96.80;;;;;;10490387;28;20098;-65
2023/04/15 23:36:05;;;;;;;9.48;2.90;;;11.10;96.80;;;;;;10482780;28;20033;-65
2023/04/15 23:41:05;;;;;;;4.97;3.08;;;11.10;96.80;;;;;;10485857;28;20024;-66
2023/04/15 23:46:07;;;;;;;6.88;2.80;;;11.10;96.80;;;;;;10476415;28;20016;-65
2023/04/15 23:51:07;;;;;;;8.90;2.78;;;11.00;96.80;;;;;;10488715;28;20021;-66
2023/04/15 23:56:08;;;;;;;7.82;3.40;;;11.10;96.80;;;;;;10491749;28;20488;-66
